sensor_id;sensor_type;location;lat;lon;timestamp;P1;durP1;ratioP1;P2;durP2;ratioP2
50128;SDS011;36026;45.478;9.224;2022-09-09T00:00:56;14.40;;;8.80;;
50128;SDS011;36026;45.478;9.224;2022-09-09T00:04:03;11.90;;;8.63;;
50128;SDS011;36026;45.478;9.224;2022-09-09T00:07:10;12.10;;;8.80;;
50128;SDS011;36026;45.478;9.224;2022-09-09T00:10:17;15.20;;;9.90;;
50128;SDS011;36026;45.478;9.224;2022-09-09T00:13:24;12.70;;;9.32;;
50128;SDS011;36026;45.478;9.224;2022-09-09T00:16:32;14.30;;;10.18;;
50128;SDS011;36026;45.478;9.224;2022-09-09T00:19:39;15.50;;;10.05;;
50128;SDS011;36026;45.478;9.224;2022-09-09T00:22:47;13.48;;;9.35;;
50128;SDS011;36026;45.478;9.224;2022-09-09T00:25:56;14.00;;;10.27;;
50128;SDS011;36026;45.478;9.224;2022-09-09T00:29:05;18.20;;;11.25;;
50128;SDS011;36026;45.478;9.224;2022-09-09T00:32:13;12.38;;;10.38;;
50128;SDS011;36026;45.478;9.224;2022-09-09T00:35:16;14.60;;;11.20;;
50128;SDS011;36026;45.478;9.224;2022-09-09T00:38:21;12.63;;;9.93;;
50128;SDS011;36026;45.478;9.224;2022-09-09T00:41:28;14.18;;;10.48;;
50128;SDS011;36026;45.478;9.224;2022-09-09T00:44:37;14.48;;;10.65;;
50128;SDS011;36026;45.478;9.224;2022-09-09T00:47:43;12.98;;;10.18;;
50128;SDS011;36026;45.478;9.224;2022-09-09T00:50:48;13.55;;;10.52;;
50128;SDS011;36026;45.478;9.224;2022-09-09T00:54:02;13.05;;;9.90;;
50128;SDS011;36026;45.478;9.224;2022-09-09T00:57:22;12.75;;;10.32;;
50128;SDS011;36026;45.478;9.224;2022-09-09T01:00:29;15.30;;;11.13;;
50128;SDS011;36026;45.478;9.224;2022-09-09T01:03:34;13.85;;;10.70;;
50128;SDS011;36026;45.478;9.224;2022-09-09T01:06:37;13.85;;;10.13;;
50128;SDS011;36026;45.478;9.224;2022-09-09T01:09:42;15.38;;;11.70;;
50128;SDS011;36026;45.478;9.224;2022-09-09T01:12:52;14.03;;;11.20;;
50128;SDS011;36026;45.478;9.224;2022-09-09T01:15:58;15.00;;;11.10;;
50128;SDS011;36026;45.478;9.224;2022-09-09T01:19:03;13.45;;;11.10;;
50128;SDS011;36026;45.478;9.224;2022-09-09T01:22:09;14.32;;;11.52;;
50128;SDS011;36026;45.478;9.224;2022-09-09T01:25:22;14.45;;;10.43;;
50128;SDS011;36026;45.478;9.224;2022-09-09T01:28:31;15.85;;;11.93;;
50128;SDS011;36026;45.478;9.224;2022-09-09T01:31:36;15.45;;;11.70;;
50128;SDS011;36026;45.478;9.224;2022-09-09T01:34:39;14.32;;;11.57;;
50128;SDS011;36026;45.478;9.224;2022-09-09T01:37:42;15.32;;;11.88;;
50128;SDS011;36026;45.478;9.224;2022-09-09T01:40:44;15.95;;;12.27;;
50128;SDS011;36026;45.478;9.224;2022-09-09T01:43:47;16.85;;;11.95;;
50128;SDS011;36026;45.478;9.224;2022-09-09T01:46:48;15.50;;;11.60;;
50128;SDS011;36026;45.478;9.224;2022-09-09T01:49:50;14.75;;;11.38;;
50128;SDS011;36026;45.478;9.224;2022-09-09T01:52:53;18.73;;;12.63;;
50128;SDS011;36026;45.478;9.224;2022-09-09T01:55:59;16.05;;;11.90;;
50128;SDS011;36026;45.478;9.224;2022-09-09T01:59:10;16.55;;;11.82;;
50128;SDS011;36026;45.478;9.224;2022-09-09T02:02:25;14.90;;;12.23;;
50128;SDS011;36026;45.478;9.224;2022-09-09T02:05:32;19.65;;;13.18;;
50128;SDS011;36026;45.478;9.224;2022-09-09T02:08:40;17.73;;;12.95;;
50128;SDS011;36026;45.478;9.224;2022-09-09T02:11:44;17.02;;;12.20;;
50128;SDS011;36026;45.478;9.224;2022-09-09T02:14:50;16.13;;;12.05;;
50128;SDS011;36026;45.478;9.224;2022-09-09T02:17:53;16.80;;;12.57;;
50128;SDS011;36026;45.478;9.224;2022-09-09T02:20:58;17.52;;;12.82;;
50128;SDS011;36026;45.478;9.224;2022-09-09T02:24:01;19.38;;;13.40;;
50128;SDS011;36026;45.478;9.224;2022-09-09T02:27:06;17.73;;;13.73;;
50128;SDS011;36026;45.478;9.224;2022-09-09T02:30:11;19.98;;;14.35;;
50128;SDS011;36026;45.478;9.224;2022-09-09T02:33:13;18.80;;;14.52;;
50128;SDS011;36026;45.478;9.224;2022-09-09T02:36:15;19.58;;;13.90;;
50128;SDS011;36026;45.478;9.224;2022-09-09T02:39:18;19.77;;;13.95;;
50128;SDS011;36026;45.478;9.224;2022-09-09T02:42:20;16.92;;;14.68;;
50128;SDS011;36026;45.478;9.224;2022-09-09T02:45:24;22.45;;;14.68;;
50128;SDS011;36026;45.478;9.224;2022-09-09T02:48:29;18.23;;;14.90;;
50128;SDS011;36026;45.478;9.224;2022-09-09T02:51:35;21.52;;;15.50;;
50128;SDS011;36026;45.478;9.224;2022-09-09T02:54:41;21.92;;;15.68;;
50128;SDS011;36026;45.478;9.224;2022-09-09T02:57:44;22.80;;;16.35;;
50128;SDS011;36026;45.478;9.224;2022-09-09T03:00:49;20.90;;;15.98;;
50128;SDS011;36026;45.478;9.224;2022-09-09T03:03:52;21.55;;;16.02;;
50128;SDS011;36026;45.478;9.224;2022-09-09T03:06:55;20.73;;;17.27;;
50128;SDS011;36026;45.478;9.224;2022-09-09T03:09:56;22.77;;;16.63;;
50128;SDS011;36026;45.478;9.224;2022-09-09T03:12:58;23.75;;;17.52;;
50128;SDS011;36026;45.478;9.224;2022-09-09T03:16:02;27.40;;;18.35;;
50128;SDS011;36026;45.478;9.224;2022-09-09T03:19:04;24.25;;;18.75;;
50128;SDS011;36026;45.478;9.224;2022-09-09T03:22:08;23.70;;;18.20;;
50128;SDS011;36026;45.478;9.224;2022-09-09T03:25:10;26.23;;;19.33;;
50128;SDS011;36026;45.478;9.224;2022-09-09T03:28:12;24.77;;;18.83;;
50128;SDS011;36026;45.478;9.224;2022-09-09T03:31:16;23.23;;;18.17;;
50128;SDS011;36026;45.478;9.224;2022-09-09T03:34:19;27.55;;;19.02;;
50128;SDS011;36026;45.478;9.224;2022-09-09T03:37:21;25.08;;;17.23;;
50128;SDS011;36026;45.478;9.224;2022-09-09T03:40:22;23.10;;;17.30;;
50128;SDS011;36026;45.478;9.224;2022-09-09T03:43:25;25.90;;;18.42;;
50128;SDS011;36026;45.478;9.224;2022-09-09T03:46:28;24.38;;;18.33;;
50128;SDS011;36026;45.478;9.224;2022-09-09T03:49:29;29.38;;;20.20;;
50128;SDS011;36026;45.478;9.224;2022-09-09T03:52:31;24.52;;;18.60;;
50128;SDS011;36026;45.478;9.224;2022-09-09T03:55:35;23.40;;;19.48;;
50128;SDS011;36026;45.478;9.224;2022-09-09T03:58:37;24.25;;;18.42;;
50128;SDS011;36026;45.478;9.224;2022-09-09T04:01:40;24.80;;;18.27;;
50128;SDS011;36026;45.478;9.224;2022-09-09T04:04:42;24.98;;;18.70;;
50128;SDS011;36026;45.478;9.224;2022-09-09T04:07:44;23.73;;;19.67;;
50128;SDS011;36026;45.478;9.224;2022-09-09T04:10:46;28.63;;;19.58;;
50128;SDS011;36026;45.478;9.224;2022-09-09T04:13:47;27.10;;;20.10;;
50128;SDS011;36026;45.478;9.224;2022-09-09T04:16:51;26.30;;;19.38;;
50128;SDS011;36026;45.478;9.224;2022-09-09T04:19:52;28.73;;;20.30;;
50128;SDS011;36026;45.478;9.224;2022-09-09T04:22:54;27.17;;;20.27;;
50128;SDS011;36026;45.478;9.224;2022-09-09T04:25:56;25.92;;;19.33;;
50128;SDS011;36026;45.478;9.224;2022-09-09T04:28:59;25.90;;;18.95;;
50128;SDS011;36026;45.478;9.224;2022-09-09T04:32:02;24.20;;;18.67;;
50128;SDS011;36026;45.478;9.224;2022-09-09T04:35:04;23.83;;;17.08;;
50128;SDS011;36026;45.478;9.224;2022-09-09T04:38:06;25.85;;;18.20;;
50128;SDS011;36026;45.478;9.224;2022-09-09T04:41:09;25.50;;;17.90;;
50128;SDS011;36026;45.478;9.224;2022-09-09T04:44:11;24.63;;;17.63;;
50128;SDS011;36026;45.478;9.224;2022-09-09T04:47:14;23.35;;;17.90;;
50128;SDS011;36026;45.478;9.224;2022-09-09T04:50:15;24.98;;;16.20;;
50128;SDS011;36026;45.478;9.224;2022-09-09T04:53:17;24.75;;;17.00;;
50128;SDS011;36026;45.478;9.224;2022-09-09T04:56:19;28.63;;;18.73;;
50128;SDS011;36026;45.478;9.224;2022-09-09T04:59:21;23.48;;;17.35;;
50128;SDS011;36026;45.478;9.224;2022-09-09T05:02:24;29.88;;;18.45;;
50128;SDS011;36026;45.478;9.224;2022-09-09T05:05:25;23.27;;;17.88;;
50128;SDS011;36026;45.478;9.224;2022-09-09T05:08:28;23.70;;;18.17;;
50128;SDS011;36026;45.478;9.224;2022-09-09T05:11:30;18.65;;;15.55;;
50128;SDS011;36026;45.478;9.224;2022-09-09T05:14:36;24.00;;;16.33;;
50128;SDS011;36026;45.478;9.224;2022-09-09T05:17:39;22.30;;;16.17;;
50128;SDS011;36026;45.478;9.224;2022-09-09T05:20:40;20.52;;;15.43;;
50128;SDS011;36026;45.478;9.224;2022-09-09T05:23:42;23.88;;;14.88;;
50128;SDS011;36026;45.478;9.224;2022-09-09T05:26:44;22.42;;;14.75;;
50128;SDS011;36026;45.478;9.224;2022-09-09T05:29:46;21.85;;;15.90;;
50128;SDS011;36026;45.478;9.224;2022-09-09T05:32:49;20.73;;;15.18;;
50128;SDS011;36026;45.478;9.224;2022-09-09T05:35:54;21.17;;;15.00;;
50128;SDS011;36026;45.478;9.224;2022-09-09T05:38:57;20.85;;;14.35;;
50128;SDS011;36026;45.478;9.224;2022-09-09T05:41:58;24.50;;;14.88;;
50128;SDS011;36026;45.478;9.224;2022-09-09T05:45:01;21.38;;;14.77;;
50128;SDS011;36026;45.478;9.224;2022-09-09T05:48:05;20.08;;;14.82;;
50128;SDS011;36026;45.478;9.224;2022-09-09T05:51:08;17.75;;;13.20;;
50128;SDS011;36026;45.478;9.224;2022-09-09T05:54:12;18.70;;;13.57;;
50128;SDS011;36026;45.478;9.224;2022-09-09T05:57:15;16.90;;;13.88;;
50128;SDS011;36026;45.478;9.224;2022-09-09T06:00:17;21.27;;;14.52;;
50128;SDS011;36026;45.478;9.224;2022-09-09T06:03:20;19.40;;;14.80;;
50128;SDS011;36026;45.478;9.224;2022-09-09T06:06:24;21.25;;;15.10;;
50128;SDS011;36026;45.478;9.224;2022-09-09T06:12:30;13.88;;;8.50;;
50128;SDS011;36026;45.478;9.224;2022-09-09T06:15:32;10.75;;;7.97;;
50128;SDS011;36026;45.478;9.224;2022-09-09T06:18:35;8.80;;;6.47;;
50128;SDS011;36026;45.478;9.224;2022-09-09T06:21:37;12.73;;;8.45;;
50128;SDS011;36026;45.478;9.224;2022-09-09T06:24:40;19.00;;;9.00;;
50128;SDS011;36026;45.478;9.224;2022-09-09T06:27:41;13.30;;;7.40;;
50128;SDS011;36026;45.478;9.224;2022-09-09T06:30:43;8.55;;;6.88;;
50128;SDS011;36026;45.478;9.224;2022-09-09T06:33:47;12.02;;;8.32;;
50128;SDS011;36026;45.478;9.224;2022-09-09T06:36:49;12.85;;;7.72;;
50128;SDS011;36026;45.478;9.224;2022-09-09T06:39:51;10.40;;;7.70;;
50128;SDS011;36026;45.478;9.224;2022-09-09T06:42:54;12.90;;;7.43;;
50128;SDS011;36026;45.478;9.224;2022-09-09T06:45:56;9.75;;;7.15;;
50128;SDS011;36026;45.478;9.224;2022-09-09T06:49:00;12.30;;;6.05;;
50128;SDS011;36026;45.478;9.224;2022-09-09T06:55:04;8.32;;;3.72;;
50128;SDS011;36026;45.478;9.224;2022-09-09T06:58:07;4.93;;;2.90;;
50128;SDS011;36026;45.478;9.224;2022-09-09T07:01:09;5.45;;;2.53;;
50128;SDS011;36026;45.478;9.224;2022-09-09T07:04:13;5.18;;;2.50;;
50128;SDS011;36026;45.478;9.224;2022-09-09T07:07:15;3.72;;;2.20;;
50128;SDS011;36026;45.478;9.224;2022-09-09T07:10:17;5.80;;;2.25;;
50128;SDS011;36026;45.478;9.224;2022-09-09T07:13:19;3.67;;;2.08;;
50128;SDS011;36026;45.478;9.224;2022-09-09T07:16:25;9.02;;;3.05;;
50128;SDS011;36026;45.478;9.224;2022-09-09T07:19:28;5.13;;;3.10;;
50128;SDS011;36026;45.478;9.224;2022-09-09T07:22:30;5.82;;;3.50;;
50128;SDS011;36026;45.478;9.224;2022-09-09T07:25:33;5.37;;;3.60;;
50128;SDS011;36026;45.478;9.224;2022-09-09T07:28:34;9.07;;;3.97;;
50128;SDS011;36026;45.478;9.224;2022-09-09T07:31:37;5.70;;;3.40;;
50128;SDS011;36026;45.478;9.224;2022-09-09T07:37:42;3.60;;;2.60;;
50128;SDS011;36026;45.478;9.224;2022-09-09T07:40:45;4.13;;;2.20;;
50128;SDS011;36026;45.478;9.224;2022-09-09T07:43:47;4.22;;;2.20;;
50128;SDS011;36026;45.478;9.224;2022-09-09T07:46:49;10.97;;;2.10;;
50128;SDS011;36026;45.478;9.224;2022-09-09T07:49:52;5.55;;;1.75;;
50128;SDS011;36026;45.478;9.224;2022-09-09T07:52:54;3.55;;;1.95;;
50128;SDS011;36026;45.478;9.224;2022-09-09T07:56:01;3.33;;;1.40;;
50128;SDS011;36026;45.478;9.224;2022-09-09T07:59:04;6.63;;;1.40;;
50128;SDS011;36026;45.478;9.224;2022-09-09T08:02:06;3.42;;;1.40;;
50128;SDS011;36026;45.478;9.224;2022-09-09T08:05:09;4.53;;;1.20;;
50128;SDS011;36026;45.478;9.224;2022-09-09T08:08:10;2.28;;;1.40;;
50128;SDS011;36026;45.478;9.224;2022-09-09T08:11:13;2.53;;;1.13;;
50128;SDS011;36026;45.478;9.224;2022-09-09T08:17:17;1.77;;;1.13;;
50128;SDS011;36026;45.478;9.224;2022-09-09T08:20:20;5.95;;;1.10;;
50128;SDS011;36026;45.478;9.224;2022-09-09T08:23:23;2.22;;;1.17;;
50128;SDS011;36026;45.478;9.224;2022-09-09T08:26:26;2.50;;;1.17;;
50128;SDS011;36026;45.478;9.224;2022-09-09T08:32:30;3.28;;;0.90;;
50128;SDS011;36026;45.478;9.224;2022-09-09T08:35:33;3.88;;;1.10;;
50128;SDS011;36026;45.478;9.224;2022-09-09T08:41:44;1.48;;;1.00;;
50128;SDS011;36026;45.478;9.224;2022-09-09T08:45:02;2.15;;;0.80;;
50128;SDS011;36026;45.478;9.224;2022-09-09T08:48:22;2.78;;;1.13;;
50128;SDS011;36026;45.478;9.224;2022-09-09T08:51:38;1.92;;;1.02;;
50128;SDS011;36026;45.478;9.224;2022-09-09T08:54:40;4.13;;;1.17;;
50128;SDS011;36026;45.478;9.224;2022-09-09T08:57:41;6.47;;;1.30;;
50128;SDS011;36026;45.478;9.224;2022-09-09T09:00:47;4.07;;;0.93;;
50128;SDS011;36026;45.478;9.224;2022-09-09T09:04:05;3.13;;;0.80;;
50128;SDS011;36026;45.478;9.224;2022-09-09T09:07:18;9.40;;;1.27;;
50128;SDS011;36026;45.478;9.224;2022-09-09T09:10:29;0.93;;;0.73;;
50128;SDS011;36026;45.478;9.224;2022-09-09T09:13:43;4.05;;;0.80;;
50128;SDS011;36026;45.478;9.224;2022-09-09T09:16:50;2.45;;;0.52;;
50128;SDS011;36026;45.478;9.224;2022-09-09T09:19:54;1.55;;;0.63;;
50128;SDS011;36026;45.478;9.224;2022-09-09T09:22:57;0.57;;;0.40;;
50128;SDS011;36026;45.478;9.224;2022-09-09T09:26:01;2.38;;;1.65;;
50128;SDS011;36026;45.478;9.224;2022-09-09T09:29:08;2.33;;;0.60;;
50128;SDS011;36026;45.478;9.224;2022-09-09T09:32:13;2.40;;;0.70;;
50128;SDS011;36026;45.478;9.224;2022-09-09T09:35:17;3.80;;;0.82;;
50128;SDS011;36026;45.478;9.224;2022-09-09T09:38:21;2.95;;;1.13;;
50128;SDS011;36026;45.478;9.224;2022-09-09T09:41:33;4.88;;;1.00;;
50128;SDS011;36026;45.478;9.224;2022-09-09T09:44:36;1.42;;;0.90;;
50128;SDS011;36026;45.478;9.224;2022-09-09T09:47:39;2.30;;;0.90;;
50128;SDS011;36026;45.478;9.224;2022-09-09T09:50:46;5.15;;;1.02;;
50128;SDS011;36026;45.478;9.224;2022-09-09T09:53:50;2.60;;;0.80;;
50128;SDS011;36026;45.478;9.224;2022-09-09T09:56:53;1.58;;;0.60;;
50128;SDS011;36026;45.478;9.224;2022-09-09T10:00:03;1.80;;;0.70;;
50128;SDS011;36026;45.478;9.224;2022-09-09T10:03:14;2.25;;;0.90;;
50128;SDS011;36026;45.478;9.224;2022-09-09T10:06:29;4.82;;;0.95;;
50128;SDS011;36026;45.478;9.224;2022-09-09T10:09:34;3.83;;;1.08;;
50128;SDS011;36026;45.478;9.224;2022-09-09T10:12:39;1.73;;;1.17;;
50128;SDS011;36026;45.478;9.224;2022-09-09T10:15:48;1.63;;;1.20;;
50128;SDS011;36026;45.478;9.224;2022-09-09T10:18:58;2.65;;;1.10;;
50128;SDS011;36026;45.478;9.224;2022-09-09T10:25:32;3.67;;;1.15;;
50128;SDS011;36026;45.478;9.224;2022-09-09T10:28:42;1.83;;;1.02;;
50128;SDS011;36026;45.478;9.224;2022-09-09T10:31:56;4.47;;;1.20;;
50128;SDS011;36026;45.478;9.224;2022-09-09T10:35:08;2.17;;;1.00;;
50128;SDS011;36026;45.478;9.224;2022-09-09T10:38:13;3.92;;;0.90;;
50128;SDS011;36026;45.478;9.224;2022-09-09T10:41:19;1.38;;;0.90;;
50128;SDS011;36026;45.478;9.224;2022-09-09T10:44:32;1.92;;;0.90;;
50128;SDS011;36026;45.478;9.224;2022-09-09T10:47:58;2.35;;;1.05;;
50128;SDS011;36026;45.478;9.224;2022-09-09T10:51:10;1.90;;;1.00;;
50128;SDS011;36026;45.478;9.224;2022-09-09T10:57:28;1.77;;;1.00;;
50128;SDS011;36026;45.478;9.224;2022-09-09T11:00:36;2.08;;;1.05;;
50128;SDS011;36026;45.478;9.224;2022-09-09T11:03:40;1.60;;;0.90;;
50128;SDS011;36026;45.478;9.224;2022-09-09T11:06:44;1.60;;;1.05;;
50128;SDS011;36026;45.478;9.224;2022-09-09T11:09:48;2.35;;;0.90;;
50128;SDS011;36026;45.478;9.224;2022-09-09T11:12:59;1.80;;;1.10;;
50128;SDS011;36026;45.478;9.224;2022-09-09T11:16:05;3.45;;;1.00;;
50128;SDS011;36026;45.478;9.224;2022-09-09T11:19:16;2.92;;;1.00;;
50128;SDS011;36026;45.478;9.224;2022-09-09T11:22:24;3.20;;;1.13;;
50128;SDS011;36026;45.478;9.224;2022-09-09T11:25:30;2.20;;;0.95;;
50128;SDS011;36026;45.478;9.224;2022-09-09T11:28:40;2.78;;;1.05;;
50128;SDS011;36026;45.478;9.224;2022-09-09T11:31:56;2.65;;;0.80;;
50128;SDS011;36026;45.478;9.224;2022-09-09T11:35:07;2.92;;;1.10;;
50128;SDS011;36026;45.478;9.224;2022-09-09T11:38:19;4.18;;;1.20;;
50128;SDS011;36026;45.478;9.224;2022-09-09T11:41:32;1.90;;;0.90;;
50128;SDS011;36026;45.478;9.224;2022-09-09T11:44:36;2.40;;;1.00;;
50128;SDS011;36026;45.478;9.224;2022-09-09T11:47:38;3.90;;;1.30;;
50128;SDS011;36026;45.478;9.224;2022-09-09T11:50:39;1.70;;;0.95;;
50128;SDS011;36026;45.478;9.224;2022-09-09T11:56:49;2.05;;;1.08;;
50128;SDS011;36026;45.478;9.224;2022-09-09T11:59:52;2.38;;;1.08;;
50128;SDS011;36026;45.478;9.224;2022-09-09T12:02:55;1.52;;;1.00;;
50128;SDS011;36026;45.478;9.224;2022-09-09T12:05:56;2.90;;;1.00;;
50128;SDS011;36026;45.478;9.224;2022-09-09T12:09:05;4.65;;;1.05;;
50128;SDS011;36026;45.478;9.224;2022-09-09T12:12:21;3.15;;;1.23;;
50128;SDS011;36026;45.478;9.224;2022-09-09T12:15:29;3.15;;;1.13;;
50128;SDS011;36026;45.478;9.224;2022-09-09T12:18:32;3.92;;;1.05;;
50128;SDS011;36026;45.478;9.224;2022-09-09T12:21:36;3.22;;;1.10;;
50128;SDS011;36026;45.478;9.224;2022-09-09T12:24:46;3.53;;;1.00;;
50128;SDS011;36026;45.478;9.224;2022-09-09T12:27:55;2.78;;;1.10;;
50128;SDS011;36026;45.478;9.224;2022-09-09T12:34:11;2.53;;;1.13;;
50128;SDS011;36026;45.478;9.224;2022-09-09T12:37:17;2.60;;;1.40;;
50128;SDS011;36026;45.478;9.224;2022-09-09T12:40:22;3.05;;;1.45;;
50128;SDS011;36026;45.478;9.224;2022-09-09T12:43:25;1.85;;;1.25;;
50128;SDS011;36026;45.478;9.224;2022-09-09T12:46:30;2.55;;;1.10;;
50128;SDS011;36026;45.478;9.224;2022-09-09T12:49:35;1.95;;;1.30;;
50128;SDS011;36026;45.478;9.224;2022-09-09T12:52:38;3.65;;;1.25;;
50128;SDS011;36026;45.478;9.224;2022-09-09T12:55:48;2.80;;;1.30;;
50128;SDS011;36026;45.478;9.224;2022-09-09T12:58:52;2.83;;;1.20;;
50128;SDS011;36026;45.478;9.224;2022-09-09T13:01:56;2.50;;;1.40;;
50128;SDS011;36026;45.478;9.224;2022-09-09T13:05:06;3.47;;;1.35;;
50128;SDS011;36026;45.478;9.224;2022-09-09T13:08:08;4.28;;;1.40;;
50128;SDS011;36026;45.478;9.224;2022-09-09T13:11:12;4.00;;;1.58;;
50128;SDS011;36026;45.478;9.224;2022-09-09T13:14:16;2.15;;;1.30;;
50128;SDS011;36026;45.478;9.224;2022-09-09T13:17:23;2.22;;;1.27;;
50128;SDS011;36026;45.478;9.224;2022-09-09T13:20:25;3.33;;;1.40;;
50128;SDS011;36026;45.478;9.224;2022-09-09T13:23:27;2.88;;;1.20;;
50128;SDS011;36026;45.478;9.224;2022-09-09T13:26:31;2.90;;;1.38;;
50128;SDS011;36026;45.478;9.224;2022-09-09T13:29:32;1.58;;;1.00;;
50128;SDS011;36026;45.478;9.224;2022-09-09T13:32:36;6.57;;;1.50;;
50128;SDS011;36026;45.478;9.224;2022-09-09T13:35:45;2.42;;;1.38;;
50128;SDS011;36026;45.478;9.224;2022-09-09T13:38:53;4.00;;;1.52;;
50128;SDS011;36026;45.478;9.224;2022-09-09T13:41:57;3.10;;;1.40;;
50128;SDS011;36026;45.478;9.224;2022-09-09T13:44:59;3.20;;;1.17;;
50128;SDS011;36026;45.478;9.224;2022-09-09T13:51:23;1.73;;;1.40;;
50128;SDS011;36026;45.478;9.224;2022-09-09T13:54:31;2.47;;;1.52;;
50128;SDS011;36026;45.478;9.224;2022-09-09T14:00:34;5.22;;;1.48;;
50128;SDS011;36026;45.478;9.224;2022-09-09T14:03:38;2.65;;;1.10;;
50128;SDS011;36026;45.478;9.224;2022-09-09T14:06:40;2.28;;;1.38;;
50128;SDS011;36026;45.478;9.224;2022-09-09T14:12:43;3.55;;;1.50;;
50128;SDS011;36026;45.478;9.224;2022-09-09T14:15:47;4.25;;;1.30;;
50128;SDS011;36026;45.478;9.224;2022-09-09T14:18:51;5.32;;;1.70;;
50128;SDS011;36026;45.478;9.224;2022-09-09T14:21:52;5.13;;;1.70;;
50128;SDS011;36026;45.478;9.224;2022-09-09T14:24:54;2.55;;;1.30;;
50128;SDS011;36026;45.478;9.224;2022-09-09T14:27:57;4.20;;;1.27;;
50128;SDS011;36026;45.478;9.224;2022-09-09T14:30:59;3.50;;;1.70;;
50128;SDS011;36026;45.478;9.224;2022-09-09T14:34:02;4.70;;;1.40;;
50128;SDS011;36026;45.478;9.224;2022-09-09T14:37:04;5.50;;;1.70;;
50128;SDS011;36026;45.478;9.224;2022-09-09T14:43:09;1.77;;;1.48;;
50128;SDS011;36026;45.478;9.224;2022-09-09T14:46:13;4.22;;;1.30;;
50128;SDS011;36026;45.478;9.224;2022-09-09T14:49:17;4.93;;;1.35;;
50128;SDS011;36026;45.478;9.224;2022-09-09T14:52:19;2.95;;;1.48;;
50128;SDS011;36026;45.478;9.224;2022-09-09T14:55:21;2.67;;;1.33;;
50128;SDS011;36026;45.478;9.224;2022-09-09T14:58:23;2.50;;;1.25;;
50128;SDS011;36026;45.478;9.224;2022-09-09T15:01:25;3.10;;;1.27;;
50128;SDS011;36026;45.478;9.224;2022-09-09T15:04:29;8.25;;;1.60;;
50128;SDS011;36026;45.478;9.224;2022-09-09T15:07:31;3.00;;;1.35;;
50128;SDS011;36026;45.478;9.224;2022-09-09T15:10:34;2.90;;;1.40;;
50128;SDS011;36026;45.478;9.224;2022-09-09T15:16:38;3.75;;;1.35;;
50128;SDS011;36026;45.478;9.224;2022-09-09T15:19:41;3.85;;;1.40;;
50128;SDS011;36026;45.478;9.224;2022-09-09T15:22:43;3.17;;;1.40;;
50128;SDS011;36026;45.478;9.224;2022-09-09T15:25:51;4.18;;;1.20;;
50128;SDS011;36026;45.478;9.224;2022-09-09T15:28:53;1.92;;;1.42;;
50128;SDS011;36026;45.478;9.224;2022-09-09T15:31:55;2.47;;;1.30;;
50128;SDS011;36026;45.478;9.224;2022-09-09T15:34:58;4.85;;;1.60;;
50128;SDS011;36026;45.478;9.224;2022-09-09T15:38:01;4.43;;;1.58;;
50128;SDS011;36026;45.478;9.224;2022-09-09T15:41:04;4.90;;;1.65;;
50128;SDS011;36026;45.478;9.224;2022-09-09T15:44:06;2.55;;;1.20;;
50128;SDS011;36026;45.478;9.224;2022-09-09T15:50:13;5.60;;;1.40;;
50128;SDS011;36026;45.478;9.224;2022-09-09T15:53:15;7.20;;;1.40;;
50128;SDS011;36026;45.478;9.224;2022-09-09T15:56:17;21.08;;;2.17;;
50128;SDS011;36026;45.478;9.224;2022-09-09T15:59:18;5.70;;;1.50;;
50128;SDS011;36026;45.478;9.224;2022-09-09T16:02:20;3.55;;;1.75;;
50128;SDS011;36026;45.478;9.224;2022-09-09T16:05:23;2.75;;;1.50;;
50128;SDS011;36026;45.478;9.224;2022-09-09T16:08:30;4.38;;;1.40;;
50128;SDS011;36026;45.478;9.224;2022-09-09T16:11:34;3.88;;;1.42;;
50128;SDS011;36026;45.478;9.224;2022-09-09T16:14:37;3.17;;;1.35;;
50128;SDS011;36026;45.478;9.224;2022-09-09T16:17:39;2.63;;;1.52;;
50128;SDS011;36026;45.478;9.224;2022-09-09T16:20:42;7.10;;;1.50;;
50128;SDS011;36026;45.478;9.224;2022-09-09T16:23:43;2.55;;;1.50;;
50128;SDS011;36026;45.478;9.224;2022-09-09T16:26:46;2.47;;;1.50;;
50128;SDS011;36026;45.478;9.224;2022-09-09T16:29:48;3.22;;;1.67;;
50128;SDS011;36026;45.478;9.224;2022-09-09T16:32:50;1.85;;;1.33;;
50128;SDS011;36026;45.478;9.224;2022-09-09T16:35:53;3.50;;;1.70;;
50128;SDS011;36026;45.478;9.224;2022-09-09T16:38:55;2.60;;;1.50;;
50128;SDS011;36026;45.478;9.224;2022-09-09T16:41:58;3.92;;;1.70;;
50128;SDS011;36026;45.478;9.224;2022-09-09T16:45:00;3.28;;;1.73;;
50128;SDS011;36026;45.478;9.224;2022-09-09T16:51:05;1.67;;;1.40;;
50128;SDS011;36026;45.478;9.224;2022-09-09T16:54:10;3.28;;;2.00;;
50128;SDS011;36026;45.478;9.224;2022-09-09T16:57:13;3.95;;;1.40;;
50128;SDS011;36026;45.478;9.224;2022-09-09T17:00:15;4.22;;;1.77;;
50128;SDS011;36026;45.478;9.224;2022-09-09T17:03:17;2.30;;;1.60;;
50128;SDS011;36026;45.478;9.224;2022-09-09T17:06:20;3.75;;;1.70;;
50128;SDS011;36026;45.478;9.224;2022-09-09T17:09:23;3.30;;;1.70;;
50128;SDS011;36026;45.478;9.224;2022-09-09T17:12:28;5.05;;;1.80;;
50128;SDS011;36026;45.478;9.224;2022-09-09T17:15:30;3.73;;;1.47;;
50128;SDS011;36026;45.478;9.224;2022-09-09T17:18:32;2.50;;;1.70;;
50128;SDS011;36026;45.478;9.224;2022-09-09T17:21:35;3.93;;;1.63;;
50128;SDS011;36026;45.478;9.224;2022-09-09T17:24:37;4.20;;;1.70;;
50128;SDS011;36026;45.478;9.224;2022-09-09T17:27:40;3.00;;;1.40;;
50128;SDS011;36026;45.478;9.224;2022-09-09T17:30:42;3.28;;;1.52;;
50128;SDS011;36026;45.478;9.224;2022-09-09T17:33:44;4.80;;;1.90;;
50128;SDS011;36026;45.478;9.224;2022-09-09T17:36:49;3.80;;;1.60;;
50128;SDS011;36026;45.478;9.224;2022-09-09T17:39:51;7.50;;;2.08;;
50128;SDS011;36026;45.478;9.224;2022-09-09T17:42:53;4.85;;;2.05;;
50128;SDS011;36026;45.478;9.224;2022-09-09T17:45:54;2.78;;;1.73;;
50128;SDS011;36026;45.478;9.224;2022-09-09T17:48:56;2.65;;;1.45;;
50128;SDS011;36026;45.478;9.224;2022-09-09T17:52:01;4.47;;;2.05;;
50128;SDS011;36026;45.478;9.224;2022-09-09T17:55:03;4.10;;;1.90;;
50128;SDS011;36026;45.478;9.224;2022-09-09T17:58:05;3.15;;;1.63;;
50128;SDS011;36026;45.478;9.224;2022-09-09T18:01:08;3.10;;;1.80;;
50128;SDS011;36026;45.478;9.224;2022-09-09T18:04:12;4.75;;;1.77;;
50128;SDS011;36026;45.478;9.224;2022-09-09T18:07:16;2.80;;;1.58;;
50128;SDS011;36026;45.478;9.224;2022-09-09T18:10:18;5.00;;;1.65;;
50128;SDS011;36026;45.478;9.224;2022-09-09T18:13:20;3.47;;;1.80;;
50128;SDS011;36026;45.478;9.224;2022-09-09T18:16:22;3.75;;;2.30;;
50128;SDS011;36026;45.478;9.224;2022-09-09T18:19:26;3.40;;;1.85;;
50128;SDS011;36026;45.478;9.224;2022-09-09T18:22:31;5.60;;;2.20;;
50128;SDS011;36026;45.478;9.224;2022-09-09T18:25:36;4.68;;;1.90;;
50128;SDS011;36026;45.478;9.224;2022-09-09T18:28:38;3.65;;;1.85;;
50128;SDS011;36026;45.478;9.224;2022-09-09T18:31:40;6.72;;;2.60;;
50128;SDS011;36026;45.478;9.224;2022-09-09T18:34:42;4.05;;;1.50;;
50128;SDS011;36026;45.478;9.224;2022-09-09T18:37:46;8.60;;;1.88;;
50128;SDS011;36026;45.478;9.224;2022-09-09T18:40:48;3.55;;;1.98;;
50128;SDS011;36026;45.478;9.224;2022-09-09T18:43:50;4.90;;;1.95;;
50128;SDS011;36026;45.478;9.224;2022-09-09T18:46:54;2.55;;;1.70;;
50128;SDS011;36026;45.478;9.224;2022-09-09T18:49:55;4.22;;;1.90;;
50128;SDS011;36026;45.478;9.224;2022-09-09T18:52:58;3.88;;;2.10;;
50128;SDS011;36026;45.478;9.224;2022-09-09T18:56:00;5.45;;;2.00;;
50128;SDS011;36026;45.478;9.224;2022-09-09T18:59:04;3.55;;;1.70;;
50128;SDS011;36026;45.478;9.224;2022-09-09T19:02:08;4.30;;;1.92;;
50128;SDS011;36026;45.478;9.224;2022-09-09T19:05:11;5.35;;;1.90;;
50128;SDS011;36026;45.478;9.224;2022-09-09T19:08:14;4.95;;;1.88;;
50128;SDS011;36026;45.478;9.224;2022-09-09T19:14:18;4.85;;;2.65;;